Airfield :







YOU CAN JOIN US ON...

 
LOGIN :

Register | Disclaimer

   EN    FR    IT 

 









Legend :    VFR   Marginal VFR   IFR   Intensive IFR   Very Intensive IFR
Visi :
Ceiling :
>= 8 km
>= 3000ft
5 to 8 km
1000 to 3000 ft
1500m to 5 km
500 to 1000 ft
800 to 1500m
200 to 500 ft
< 800m
< 200 ft
Symbols :   Thunderstorms  Fog  Heavy snow  Heavy precipitations  Wind > 20 kt






- Airport Elevation : 626 ft


KCAR - Caribou Municipal

CURRENT METAR :
  • 240807Z AUTO 15006KT 10SM OVC010 18/16 A3016 RMK AO2 T01780156

EXPIRED METARs :
  • 240754Z AUTO 16008KT 10SM OVC009 18/16 A3016 RMK AO2 SLP216 T01780156
  • 240702Z AUTO 16008KT 10SM OVC006 18/16 A3016 RMK AO2 T01780156
  • 240654Z AUTO 16007KT 10SM OVC005 17/16 A3016 RMK AO2 SLP215 T01720156
  • 240554Z AUTO 17004KT 10SM OVC005 18/16 A3017 RMK AO2 SLP218 T01780161 10206 20172 58008

TAF KCAR
Valid from the 24 at 08:00 until the 25 at 06:00 UTC


240813Z 2408/2506 14005KT P6SM OVC008
FM240930 14005KT 3SM BR VCSH OVC004
FM241300 15012G20KT P6SM VCSH OVC008
FM241700 15013G21KT P6SM VCSH BKN020
FM250000 15012KT 6SM -SHRADZ OVC013 WS020/17040KT
FM250400 16008KT 3SM -SHRA BR OVC007 WS020/18045KT
KZBW FIR / North America



MET'MAP, your aeronautical weather chart ! - Copyright ORBIFLY December 2007 - Disclaimer

ORBIFLY MET'MAP TEAM :

Programming & Development : Alexandra Zaïnal
Concept & original design : Baudouin d'Aumeries
Assistance for programming : Marc-Olivier Méhu
Technical & hardware support : Manuel Goepfert

Contact : metmap@orbifly.com




SOURCES & CREDITS :

   NOAA